sensor_id;sensor_type;location;lat;lon;timestamp;temperature;humidity
8541;DHT22;4308;51.294;6.590;2024-03-02T00:00:51;7.80;99.90
8541;DHT22;4308;51.294;6.590;2024-03-02T00:03:19;7.80;99.90
8541;DHT22;4308;51.294;6.590;2024-03-02T00:05:50;7.80;99.90
8541;DHT22;4308;51.294;6.590;2024-03-02T00:08:25;7.80;99.90
8541;DHT22;4308;51.294;6.590;2024-03-02T00:10:57;7.90;99.90
8541;DHT22;4308;51.294;6.590;2024-03-02T00:13:25;8.00;99.90
8541;DHT22;4308;51.294;6.590;2024-03-02T00:15:56;8.10;99.90
8541;DHT22;4308;51.294;6.590;2024-03-02T00:18:30;8.20;99.90
8541;DHT22;4308;51.294;6.590;2024-03-02T00:20:59;8.30;99.90
8541;DHT22;4308;51.294;6.590;2024-03-02T00:23:31;8.40;99.90
8541;DHT22;4308;51.294;6.590;2024-03-02T00:25:59;8.40;99.90
8541;DHT22;4308;51.294;6.590;2024-03-02T00:31:08;8.50;99.90
8541;DHT22;4308;51.294;6.590;2024-03-02T00:33:40;8.50;99.90
8541;DHT22;4308;51.294;6.590;2024-03-02T00:36:09;8.70;99.90
8541;DHT22;4308;51.294;6.590;2024-03-02T00:38:55;8.60;99.90
8541;DHT22;4308;51.294;6.590;2024-03-02T00:46:21;8.70;99.90
8541;DHT22;4308;51.294;6.590;2024-03-02T00:48:55;8.70;99.90
8541;DHT22;4308;51.294;6.590;2024-03-02T00:51:25;8.70;99.90
8541;DHT22;4308;51.294;6.590;2024-03-02T00:53:54;8.70;99.90
8541;DHT22;4308;51.294;6.590;2024-03-02T00:56:23;8.80;99.90
8541;DHT22;4308;51.294;6.590;2024-03-02T00:58:51;8.80;99.90
8541;DHT22;4308;51.294;6.590;2024-03-02T01:01:18;8.70;99.90
8541;DHT22;4308;51.294;6.590;2024-03-02T01:03:46;8.70;99.90
8541;DHT22;4308;51.294;6.590;2024-03-02T01:06:15;8.60;99.90
8541;DHT22;4308;51.294;6.590;2024-03-02T01:08:43;8.50;99.90
8541;DHT22;4308;51.294;6.590;2024-03-02T01:11:10;8.40;99.90
8541;DHT22;4308;51.294;6.590;2024-03-02T01:13:38;8.30;99.90
8541;DHT22;4308;51.294;6.590;2024-03-02T01:16:05;8.20;99.90
8541;DHT22;4308;51.294;6.590;2024-03-02T01:18:33;8.10;99.90
8541;DHT22;4308;51.294;6.590;2024-03-02T01:21:00;8.10;99.90
8541;DHT22;4308;51.294;6.590;2024-03-02T01:23:27;8.00;99.90
8541;DHT22;4308;51.294;6.590;2024-03-02T01:25:55;7.90;99.90
8541;DHT22;4308;51.294;6.590;2024-03-02T01:28:22;7.90;99.90
8541;DHT22;4308;51.294;6.590;2024-03-02T01:30:49;7.90;99.90
8541;DHT22;4308;51.294;6.590;2024-03-02T01:33:18;7.90;99.90
8541;DHT22;4308;51.294;6.590;2024-03-02T01:35:46;7.90;99.90
8541;DHT22;4308;51.294;6.590;2024-03-02T01:38:13;8.00;99.90
8541;DHT22;4308;51.294;6.590;2024-03-02T01:40:41;7.90;99.90
8541;DHT22;4308;51.294;6.590;2024-03-02T01:43:09;7.90;99.90
8541;DHT22;4308;51.294;6.590;2024-03-02T01:45:36;7.90;99.90
8541;DHT22;4308;51.294;6.590;2024-03-02T01:48:05;8.00;99.90
8541;DHT22;4308;51.294;6.590;2024-03-02T01:50:34;8.10;99.90
8541;DHT22;4308;51.294;6.590;2024-03-02T01:53:01;8.20;99.90
8541;DHT22;4308;51.294;6.590;2024-03-02T01:55:29;8.30;99.90
8541;DHT22;4308;51.294;6.590;2024-03-02T01:57:56;8.40;99.90
8541;DHT22;4308;51.294;6.590;2024-03-02T02:00:24;8.50;99.90
8541;DHT22;4308;51.294;6.590;2024-03-02T02:02:52;8.60;99.90
8541;DHT22;4308;51.294;6.590;2024-03-02T02:05:20;8.60;99.90
8541;DHT22;4308;51.294;6.590;2024-03-02T02:07:47;8.70;99.90
8541;DHT22;4308;51.294;6.590;2024-03-02T02:10:14;8.70;99.90
8541;DHT22;4308;51.294;6.590;2024-03-02T02:12:42;8.70;99.90
8541;DHT22;4308;51.294;6.590;2024-03-02T02:15:28;8.70;99.90
8541;DHT22;4308;51.294;6.590;2024-03-02T02:17:57;8.80;99.90
8541;DHT22;4308;51.294;6.590;2024-03-02T02:20:25;8.80;99.90
8541;DHT22;4308;51.294;6.590;2024-03-02T02:23:02;8.80;99.90
8541;DHT22;4308;51.294;6.590;2024-03-02T02:25:30;8.80;99.90
8541;DHT22;4308;51.294;6.590;2024-03-02T02:27:58;8.80;99.90
8541;DHT22;4308;51.294;6.590;2024-03-02T02:30:29;8.70;99.90
8541;DHT22;4308;51.294;6.590;2024-03-02T02:32:57;8.70;99.90
8541;DHT22;4308;51.294;6.590;2024-03-02T02:35:25;8.70;99.90
8541;DHT22;4308;51.294;6.590;2024-03-02T02:37:54;8.60;99.90
8541;DHT22;4308;51.294;6.590;2024-03-02T02:40:22;8.50;99.90
8541;DHT22;4308;51.294;6.590;2024-03-02T02:42:50;8.40;99.90
8541;DHT22;4308;51.294;6.590;2024-03-02T02:45:17;8.30;99.90
8541;DHT22;4308;51.294;6.590;2024-03-02T02:47:45;8.20;99.90
8541;DHT22;4308;51.294;6.590;2024-03-02T02:50:15;8.20;99.90
8541;DHT22;4308;51.294;6.590;2024-03-02T02:52:43;8.20;99.90
8541;DHT22;4308;51.294;6.590;2024-03-02T02:55:12;8.20;99.90
8541;DHT22;4308;51.294;6.590;2024-03-02T02:57:40;8.20;99.90
8541;DHT22;4308;51.294;6.590;2024-03-02T03:00:12;8.30;99.90
8541;DHT22;4308;51.294;6.590;2024-03-02T03:02:41;8.30;99.90
8541;DHT22;4308;51.294;6.590;2024-03-02T03:05:10;8.40;99.90
8541;DHT22;4308;51.294;6.590;2024-03-02T03:07:40;8.40;99.90
8541;DHT22;4308;51.294;6.590;2024-03-02T03:10:08;8.40;99.90
8541;DHT22;4308;51.294;6.590;2024-03-02T03:12:35;8.30;99.90
8541;DHT22;4308;51.294;6.590;2024-03-02T03:15:04;8.30;99.90
8541;DHT22;4308;51.294;6.590;2024-03-02T03:17:31;8.20;99.90
8541;DHT22;4308;51.294;6.590;2024-03-02T03:19:59;8.20;99.90
8541;DHT22;4308;51.294;6.590;2024-03-02T03:22:27;8.10;99.90
8541;DHT22;4308;51.294;6.590;2024-03-02T03:24:54;8.20;99.90
8541;DHT22;4308;51.294;6.590;2024-03-02T03:27:22;8.10;99.90
8541;DHT22;4308;51.294;6.590;2024-03-02T03:29:53;8.10;99.90
8541;DHT22;4308;51.294;6.590;2024-03-02T03:32:23;8.10;99.90
8541;DHT22;4308;51.294;6.590;2024-03-02T03:34:50;8.10;99.90
8541;DHT22;4308;51.294;6.590;2024-03-02T03:37:17;8.10;99.90
8541;DHT22;4308;51.294;6.590;2024-03-02T03:39:45;8.10;99.90
8541;DHT22;4308;51.294;6.590;2024-03-02T03:42:12;8.20;99.90
8541;DHT22;4308;51.294;6.590;2024-03-02T03:44:39;8.20;99.90
8541;DHT22;4308;51.294;6.590;2024-03-02T03:47:07;8.20;99.90
8541;DHT22;4308;51.294;6.590;2024-03-02T03:49:34;8.30;99.90
8541;DHT22;4308;51.294;6.590;2024-03-02T03:52:01;8.30;99.90
8541;DHT22;4308;51.294;6.590;2024-03-02T03:54:29;8.30;99.90
8541;DHT22;4308;51.294;6.590;2024-03-02T03:56:56;8.30;99.90
8541;DHT22;4308;51.294;6.590;2024-03-02T03:59:23;8.20;99.90
8541;DHT22;4308;51.294;6.590;2024-03-02T04:01:51;8.10;99.90
8541;DHT22;4308;51.294;6.590;2024-03-02T04:04:18;8.00;99.90
8541;DHT22;4308;51.294;6.590;2024-03-02T04:06:45;7.90;99.90
8541;DHT22;4308;51.294;6.590;2024-03-02T04:09:13;7.90;99.90
8541;DHT22;4308;51.294;6.590;2024-03-02T04:11:40;7.80;99.90
8541;DHT22;4308;51.294;6.590;2024-03-02T04:14:07;7.80;99.90
8541;DHT22;4308;51.294;6.590;2024-03-02T04:16:35;7.80;99.90
8541;DHT22;4308;51.294;6.590;2024-03-02T04:19:02;7.70;99.90
8541;DHT22;4308;51.294;6.590;2024-03-02T04:21:30;7.70;99.90
8541;DHT22;4308;51.294;6.590;2024-03-02T04:23:57;7.70;99.90
8541;DHT22;4308;51.294;6.590;2024-03-02T04:26:27;7.70;99.90
8541;DHT22;4308;51.294;6.590;2024-03-02T04:28:57;7.70;99.90
8541;DHT22;4308;51.294;6.590;2024-03-02T04:31:24;7.70;99.90
8541;DHT22;4308;51.294;6.590;2024-03-02T04:33:51;7.70;99.90
8541;DHT22;4308;51.294;6.590;2024-03-02T04:36:19;7.60;99.90
8541;DHT22;4308;51.294;6.590;2024-03-02T04:38:49;7.60;99.90
8541;DHT22;4308;51.294;6.590;2024-03-02T04:41:16;7.50;99.90
8541;DHT22;4308;51.294;6.590;2024-03-02T04:43:43;7.50;99.90
8541;DHT22;4308;51.294;6.590;2024-03-02T04:46:11;7.50;99.90
8541;DHT22;4308;51.294;6.590;2024-03-02T04:48:38;7.50;99.90
8541;DHT22;4308;51.294;6.590;2024-03-02T04:51:06;7.40;99.90
8541;DHT22;4308;51.294;6.590;2024-03-02T04:53:33;7.30;99.90
8541;DHT22;4308;51.294;6.590;2024-03-02T04:56:00;7.10;99.90
8541;DHT22;4308;51.294;6.590;2024-03-02T04:58:30;7.00;99.90
8541;DHT22;4308;51.294;6.590;2024-03-02T05:00:58;6.80;99.90
8541;DHT22;4308;51.294;6.590;2024-03-02T05:03:25;6.80;99.90
8541;DHT22;4308;51.294;6.590;2024-03-02T05:05:52;6.60;99.90
8541;DHT22;4308;51.294;6.590;2024-03-02T05:08:20;6.70;99.90
8541;DHT22;4308;51.294;6.590;2024-03-02T05:10:47;6.60;99.90
8541;DHT22;4308;51.294;6.590;2024-03-02T05:13:14;6.60;99.90
8541;DHT22;4308;51.294;6.590;2024-03-02T05:15:42;6.60;99.90
8541;DHT22;4308;51.294;6.590;2024-03-02T05:18:09;6.70;99.90
8541;DHT22;4308;51.294;6.590;2024-03-02T05:20:36;6.70;99.90
8541;DHT22;4308;51.294;6.590;2024-03-02T05:23:04;6.80;99.90
8541;DHT22;4308;51.294;6.590;2024-03-02T05:25:31;6.90;99.90
8541;DHT22;4308;51.294;6.590;2024-03-02T05:27:58;6.90;99.90
8541;DHT22;4308;51.294;6.590;2024-03-02T05:30:26;6.90;99.90
8541;DHT22;4308;51.294;6.590;2024-03-02T05:32:53;7.00;99.90
8541;DHT22;4308;51.294;6.590;2024-03-02T05:35:21;6.90;99.90
8541;DHT22;4308;51.294;6.590;2024-03-02T05:37:48;7.00;99.90
8541;DHT22;4308;51.294;6.590;2024-03-02T05:40:15;7.00;99.90
8541;DHT22;4308;51.294;6.590;2024-03-02T05:42:43;7.00;99.90
8541;DHT22;4308;51.294;6.590;2024-03-02T05:45:10;7.00;99.90
8541;DHT22;4308;51.294;6.590;2024-03-02T05:47:37;7.10;99.90
8541;DHT22;4308;51.294;6.590;2024-03-02T05:50:05;7.10;99.90
8541;DHT22;4308;51.294;6.590;2024-03-02T05:52:32;7.10;99.90
8541;DHT22;4308;51.294;6.590;2024-03-02T05:55:00;7.10;99.90
8541;DHT22;4308;51.294;6.590;2024-03-02T05:57:27;7.00;99.90
8541;DHT22;4308;51.294;6.590;2024-03-02T05:59:55;6.90;99.90
8541;DHT22;4308;51.294;6.590;2024-03-02T06:02:22;6.90;99.90
8541;DHT22;4308;51.294;6.590;2024-03-02T06:04:49;6.90;99.90
8541;DHT22;4308;51.294;6.590;2024-03-02T06:07:16;6.80;99.90
8541;DHT22;4308;51.294;6.590;2024-03-02T06:09:44;6.80;99.90
8541;DHT22;4308;51.294;6.590;2024-03-02T06:12:11;6.80;99.90
8541;DHT22;4308;51.294;6.590;2024-03-02T06:14:38;6.80;99.90
8541;DHT22;4308;51.294;6.590;2024-03-02T06:17:06;6.80;99.90
8541;DHT22;4308;51.294;6.590;2024-03-02T06:19:33;6.80;99.90
8541;DHT22;4308;51.294;6.590;2024-03-02T06:22:00;6.90;99.90
8541;DHT22;4308;51.294;6.590;2024-03-02T06:24:28;6.80;99.90
8541;DHT22;4308;51.294;6.590;2024-03-02T06:26:55;6.80;99.90
8541;DHT22;4308;51.294;6.590;2024-03-02T06:29:22;6.80;99.90
8541;DHT22;4308;51.294;6.590;2024-03-02T06:31:50;6.90;99.90
8541;DHT22;4308;51.294;6.590;2024-03-02T06:34:21;6.90;99.90
8541;DHT22;4308;51.294;6.590;2024-03-02T06:36:48;7.00;99.90
8541;DHT22;4308;51.294;6.590;2024-03-02T06:39:16;7.00;99.90
8541;DHT22;4308;51.294;6.590;2024-03-02T06:41:43;6.90;99.90
8541;DHT22;4308;51.294;6.590;2024-03-02T06:44:13;7.00;99.90
8541;DHT22;4308;51.294;6.590;2024-03-02T06:46:43;7.20;99.90
8541;DHT22;4308;51.294;6.590;2024-03-02T06:49:10;7.30;99.90
8541;DHT22;4308;51.294;6.590;2024-03-02T06:51:38;7.40;99.90
8541;DHT22;4308;51.294;6.590;2024-03-02T06:54:05;7.60;99.90
8541;DHT22;4308;51.294;6.590;2024-03-02T06:56:32;7.60;99.90
8541;DHT22;4308;51.294;6.590;2024-03-02T06:59:00;7.70;99.90
8541;DHT22;4308;51.294;6.590;2024-03-02T07:01:27;7.80;99.90
8541;DHT22;4308;51.294;6.590;2024-03-02T07:03:55;8.00;99.90
8541;DHT22;4308;51.294;6.590;2024-03-02T07:06:22;8.10;99.90
8541;DHT22;4308;51.294;6.590;2024-03-02T07:08:50;8.20;99.90
8541;DHT22;4308;51.294;6.590;2024-03-02T07:11:17;8.30;99.90
8541;DHT22;4308;51.294;6.590;2024-03-02T07:13:44;8.30;99.90
8541;DHT22;4308;51.294;6.590;2024-03-02T07:16:12;8.40;99.90
8541;DHT22;4308;51.294;6.590;2024-03-02T07:18:41;8.50;99.90
8541;DHT22;4308;51.294;6.590;2024-03-02T07:21:09;8.60;99.90
8541;DHT22;4308;51.294;6.590;2024-03-02T07:23:36;8.60;99.90
8541;DHT22;4308;51.294;6.590;2024-03-02T07:26:03;8.70;99.90
8541;DHT22;4308;51.294;6.590;2024-03-02T07:28:34;8.60;99.90
8541;DHT22;4308;51.294;6.590;2024-03-02T07:31:02;8.70;99.90
8541;DHT22;4308;51.294;6.590;2024-03-02T07:33:30;8.70;99.90
8541;DHT22;4308;51.294;6.590;2024-03-02T07:35:59;8.70;99.90
8541;DHT22;4308;51.294;6.590;2024-03-02T07:38:29;8.70;99.90
8541;DHT22;4308;51.294;6.590;2024-03-02T07:40:57;8.80;99.90
8541;DHT22;4308;51.294;6.590;2024-03-02T07:43:25;8.70;99.90
8541;DHT22;4308;51.294;6.590;2024-03-02T07:45:52;8.80;99.90
8541;DHT22;4308;51.294;6.590;2024-03-02T07:48:19;8.80;99.90
8541;DHT22;4308;51.294;6.590;2024-03-02T07:50:47;8.80;99.90
8541;DHT22;4308;51.294;6.590;2024-03-02T07:53:14;8.70;99.90
8541;DHT22;4308;51.294;6.590;2024-03-02T07:55:42;8.60;99.90
8541;DHT22;4308;51.294;6.590;2024-03-02T07:58:09;8.50;99.90
8541;DHT22;4308;51.294;6.590;2024-03-02T08:00:39;8.50;99.90
8541;DHT22;4308;51.294;6.590;2024-03-02T08:03:07;8.60;99.90
8541;DHT22;4308;51.294;6.590;2024-03-02T08:05:34;8.60;99.90
8541;DHT22;4308;51.294;6.590;2024-03-02T08:08:02;8.60;99.90
8541;DHT22;4308;51.294;6.590;2024-03-02T08:10:29;8.70;99.90
8541;DHT22;4308;51.294;6.590;2024-03-02T08:12:56;8.70;99.90
8541;DHT22;4308;51.294;6.590;2024-03-02T08:15:24;8.70;99.90
8541;DHT22;4308;51.294;6.590;2024-03-02T08:17:51;8.80;99.90
8541;DHT22;4308;51.294;6.590;2024-03-02T08:20:19;8.80;99.90
8541;DHT22;4308;51.294;6.590;2024-03-02T08:22:47;9.10;99.90
8541;DHT22;4308;51.294;6.590;2024-03-02T08:25:14;9.20;99.90
8541;DHT22;4308;51.294;6.590;2024-03-02T08:27:41;9.30;99.90
8541;DHT22;4308;51.294;6.590;2024-03-02T08:30:09;9.20;99.90
8541;DHT22;4308;51.294;6.590;2024-03-02T08:32:39;9.30;99.90
8541;DHT22;4308;51.294;6.590;2024-03-02T08:35:07;9.30;99.90
8541;DHT22;4308;51.294;6.590;2024-03-02T08:37:34;9.30;99.90
8541;DHT22;4308;51.294;6.590;2024-03-02T08:40:02;9.40;99.90
8541;DHT22;4308;51.294;6.590;2024-03-02T08:42:29;9.40;99.90
8541;DHT22;4308;51.294;6.590;2024-03-02T08:44:57;9.60;99.90
8541;DHT22;4308;51.294;6.590;2024-03-02T08:47:24;9.70;99.90
8541;DHT22;4308;51.294;6.590;2024-03-02T08:49:52;9.80;99.90
8541;DHT22;4308;51.294;6.590;2024-03-02T08:52:19;9.90;99.90
8541;DHT22;4308;51.294;6.590;2024-03-02T08:54:46;10.00;99.90
8541;DHT22;4308;51.294;6.590;2024-03-02T08:57:14;10.10;99.90
8541;DHT22;4308;51.294;6.590;2024-03-02T08:59:41;10.30;99.90
8541;DHT22;4308;51.294;6.590;2024-03-02T09:02:08;10.40;99.90
8541;DHT22;4308;51.294;6.590;2024-03-02T09:04:36;10.60;99.90
8541;DHT22;4308;51.294;6.590;2024-03-02T09:07:04;10.70;99.90
8541;DHT22;4308;51.294;6.590;2024-03-02T09:09:31;10.70;99.90
8541;DHT22;4308;51.294;6.590;2024-03-02T09:11:59;10.60;99.90
8541;DHT22;4308;51.294;6.590;2024-03-02T09:14:27;10.60;99.90
8541;DHT22;4308;51.294;6.590;2024-03-02T09:16:54;10.60;99.90
8541;DHT22;4308;51.294;6.590;2024-03-02T09:19:21;10.60;99.90
8541;DHT22;4308;51.294;6.590;2024-03-02T09:21:49;10.70;99.90
8541;DHT22;4308;51.294;6.590;2024-03-02T09:24:16;11.00;99.90
8541;DHT22;4308;51.294;6.590;2024-03-02T09:26:44;11.30;99.90
8541;DHT22;4308;51.294;6.590;2024-03-02T09:29:12;11.50;99.90
8541;DHT22;4308;51.294;6.590;2024-03-02T09:31:40;11.60;99.90
8541;DHT22;4308;51.294;6.590;2024-03-02T09:34:08;11.60;99.90
8541;DHT22;4308;51.294;6.590;2024-03-02T09:36:35;11.70;99.90
8541;DHT22;4308;51.294;6.590;2024-03-02T09:39:02;11.90;99.90
8541;DHT22;4308;51.294;6.590;2024-03-02T09:41:29;12.00;99.90
8541;DHT22;4308;51.294;6.590;2024-03-02T09:43:57;12.00;99.90
8541;DHT22;4308;51.294;6.590;2024-03-02T09:46:24;12.00;99.90
8541;DHT22;4308;51.294;6.590;2024-03-02T09:48:52;12.10;99.90
8541;DHT22;4308;51.294;6.590;2024-03-02T09:51:20;12.00;99.90
8541;DHT22;4308;51.294;6.590;2024-03-02T09:53:48;11.90;99.90
8541;DHT22;4308;51.294;6.590;2024-03-02T09:56:15;11.90;99.90
8541;DHT22;4308;51.294;6.590;2024-03-02T09:58:42;12.00;99.90
8541;DHT22;4308;51.294;6.590;2024-03-02T10:01:12;11.90;99.90
8541;DHT22;4308;51.294;6.590;2024-03-02T10:03:39;12.00;99.90
8541;DHT22;4308;51.294;6.590;2024-03-02T10:06:22;12.10;99.90
8541;DHT22;4308;51.294;6.590;2024-03-02T10:08:49;12.20;99.90
8541;DHT22;4308;51.294;6.590;2024-03-02T10:11:30;12.30;99.90
8541;DHT22;4308;51.294;6.590;2024-03-02T10:14:05;12.30;99.90
8541;DHT22;4308;51.294;6.590;2024-03-02T10:16:33;12.30;99.90
8541;DHT22;4308;51.294;6.590;2024-03-02T10:19:19;12.30;99.90
8541;DHT22;4308;51.294;6.590;2024-03-02T10:21:48;12.30;99.90
8541;DHT22;4308;51.294;6.590;2024-03-02T10:24:19;12.30;99.90
8541;DHT22;4308;51.294;6.590;2024-03-02T10:26:48;12.30;99.90
8541;DHT22;4308;51.294;6.590;2024-03-02T10:29:15;12.30;99.90
8541;DHT22;4308;51.294;6.590;2024-03-02T10:31:46;12.30;99.90
8541;DHT22;4308;51.294;6.590;2024-03-02T10:34:15;12.30;99.90
8541;DHT22;4308;51.294;6.590;2024-03-02T10:36:43;12.40;99.90
8541;DHT22;4308;51.294;6.590;2024-03-02T10:39:12;12.40;99.90
8541;DHT22;4308;51.294;6.590;2024-03-02T10:41:40;12.40;99.90
8541;DHT22;4308;51.294;6.590;2024-03-02T10:44:09;12.50;99.90
8541;DHT22;4308;51.294;6.590;2024-03-02T10:46:37;12.50;99.90
8541;DHT22;4308;51.294;6.590;2024-03-02T10:49:06;12.60;99.90
8541;DHT22;4308;51.294;6.590;2024-03-02T10:51:35;12.60;99.90
8541;DHT22;4308;51.294;6.590;2024-03-02T10:54:03;12.70;99.90
8541;DHT22;4308;51.294;6.590;2024-03-02T10:56:41;12.70;99.90
8541;DHT22;4308;51.294;6.590;2024-03-02T10:59:26;12.80;99.90
8541;DHT22;4308;51.294;6.590;2024-03-02T11:02:00;12.90;99.90
8541;DHT22;4308;51.294;6.590;2024-03-02T11:04:33;13.10;99.90
8541;DHT22;4308;51.294;6.590;2024-03-02T11:07:08;13.10;99.90
8541;DHT22;4308;51.294;6.590;2024-03-02T11:09:54;13.10;99.90
8541;DHT22;4308;51.294;6.590;2024-03-02T11:12:39;13.20;99.90
8541;DHT22;4308;51.294;6.590;2024-03-02T11:15:10;13.20;99.90
8541;DHT22;4308;51.294;6.590;2024-03-02T11:17:39;13.30;99.90
8541;DHT22;4308;51.294;6.590;2024-03-02T11:20:08;13.40;99.90
8541;DHT22;4308;51.294;6.590;2024-03-02T11:22:36;13.40;99.90
8541;DHT22;4308;51.294;6.590;2024-03-02T11:25:04;13.50;99.90
8541;DHT22;4308;51.294;6.590;2024-03-02T11:33:06;13.60;99.90
8541;DHT22;4308;51.294;6.590;2024-03-02T11:35:35;13.70;99.90
8541;DHT22;4308;51.294;6.590;2024-03-02T11:38:02;13.70;99.90
8541;DHT22;4308;51.294;6.590;2024-03-02T11:40:30;13.70;99.90
8541;DHT22;4308;51.294;6.590;2024-03-02T11:42:59;13.80;99.90
8541;DHT22;4308;51.294;6.590;2024-03-02T11:45:28;13.90;99.90
8541;DHT22;4308;51.294;6.590;2024-03-02T11:47:57;13.90;99.90
8541;DHT22;4308;51.294;6.590;2024-03-02T11:50:34;13.90;99.90
8541;DHT22;4308;51.294;6.590;2024-03-02T11:53:03;14.00;99.90
8541;DHT22;4308;51.294;6.590;2024-03-02T11:55:36;14.00;99.90
8541;DHT22;4308;51.294;6.590;2024-03-02T11:58:04;13.90;99.90
8541;DHT22;4308;51.294;6.590;2024-03-02T12:00:32;14.00;99.90
8541;DHT22;4308;51.294;6.590;2024-03-02T12:03:10;14.00;99.90
8541;DHT22;4308;51.294;6.590;2024-03-02T12:05:39;13.90;99.90
8541;DHT22;4308;51.294;6.590;2024-03-02T12:08:07;13.80;99.90
8541;DHT22;4308;51.294;6.590;2024-03-02T12:10:36;13.70;99.90
8541;DHT22;4308;51.294;6.590;2024-03-02T12:13:05;13.60;99.90
8541;DHT22;4308;51.294;6.590;2024-03-02T12:15:34;13.60;99.90
8541;DHT22;4308;51.294;6.590;2024-03-02T12:18:02;13.70;99.90
8541;DHT22;4308;51.294;6.590;2024-03-02T12:20:31;13.80;99.90
8541;DHT22;4308;51.294;6.590;2024-03-02T12:23:03;14.00;99.90
8541;DHT22;4308;51.294;6.590;2024-03-02T12:25:32;14.30;99.90
8541;DHT22;4308;51.294;6.590;2024-03-02T12:28:00;14.40;99.90
8541;DHT22;4308;51.294;6.590;2024-03-02T12:30:30;14.70;99.90
8541;DHT22;4308;51.294;6.590;2024-03-02T12:32:58;14.90;99.90
8541;DHT22;4308;51.294;6.590;2024-03-02T12:35:25;15.00;99.90
8541;DHT22;4308;51.294;6.590;2024-03-02T12:37:53;15.00;99.90
8541;DHT22;4308;51.294;6.590;2024-03-02T12:40:21;15.20;99.90
8541;DHT22;4308;51.294;6.590;2024-03-02T12:42:49;15.20;99.90
8541;DHT22;4308;51.294;6.590;2024-03-02T12:45:17;15.30;99.90
8541;DHT22;4308;51.294;6.590;2024-03-02T12:47:46;15.10;99.90
8541;DHT22;4308;51.294;6.590;2024-03-02T12:50:14;15.00;99.90
8541;DHT22;4308;51.294;6.590;2024-03-02T12:52:42;14.90;99.90
8541;DHT22;4308;51.294;6.590;2024-03-02T12:55:10;15.10;99.90
8541;DHT22;4308;51.294;6.590;2024-03-02T12:57:37;15.30;99.90
8541;DHT22;4308;51.294;6.590;2024-03-02T13:00:10;15.30;99.90
8541;DHT22;4308;51.294;6.590;2024-03-02T13:02:40;15.50;99.90
8541;DHT22;4308;51.294;6.590;2024-03-02T13:05:08;15.60;99.90
8541;DHT22;4308;51.294;6.590;2024-03-02T13:07:36;15.60;99.90
8541;DHT22;4308;51.294;6.590;2024-03-02T13:10:04;15.60;99.90
8541;DHT22;4308;51.294;6.590;2024-03-02T13:12:31;15.60;99.90
8541;DHT22;4308;51.294;6.590;2024-03-02T13:14:59;15.50;99.90
8541;DHT22;4308;51.294;6.590;2024-03-02T13:17:26;15.40;99.90
8541;DHT22;4308;51.294;6.590;2024-03-02T13:19:59;15.40;99.90
8541;DHT22;4308;51.294;6.590;2024-03-02T13:22:27;15.60;99.90
8541;DHT22;4308;51.294;6.590;2024-03-02T13:24:54;15.50;99.90
8541;DHT22;4308;51.294;6.590;2024-03-02T13:27:24;15.40;99.90
8541;DHT22;4308;51.294;6.590;2024-03-02T13:29:51;15.40;99.90
8541;DHT22;4308;51.294;6.590;2024-03-02T13:32:19;15.40;99.90
8541;DHT22;4308;51.294;6.590;2024-03-02T13:34:46;15.30;99.90
8541;DHT22;4308;51.294;6.590;2024-03-02T13:37:13;15.30;99.90
8541;DHT22;4308;51.294;6.590;2024-03-02T13:39:41;15.40;99.90
8541;DHT22;4308;51.294;6.590;2024-03-02T13:42:09;15.40;99.90
8541;DHT22;4308;51.294;6.590;2024-03-02T13:44:37;15.40;99.90
8541;DHT22;4308;51.294;6.590;2024-03-02T13:47:04;15.40;99.90
8541;DHT22;4308;51.294;6.590;2024-03-02T13:49:32;15.30;99.90
8541;DHT22;4308;51.294;6.590;2024-03-02T13:52:05;15.20;99.90
8541;DHT22;4308;51.294;6.590;2024-03-02T13:54:33;15.20;99.90
8541;DHT22;4308;51.294;6.590;2024-03-02T13:57:03;15.20;99.90
8541;DHT22;4308;51.294;6.590;2024-03-02T13:59:31;15.20;99.90
8541;DHT22;4308;51.294;6.590;2024-03-02T14:01:58;15.30;99.90
8541;DHT22;4308;51.294;6.590;2024-03-02T14:04:26;15.40;99.90
8541;DHT22;4308;51.294;6.590;2024-03-02T14:06:53;15.40;99.90
8541;DHT22;4308;51.294;6.590;2024-03-02T14:09:21;15.40;99.90
8541;DHT22;4308;51.294;6.590;2024-03-02T14:11:51;15.50;99.90
8541;DHT22;4308;51.294;6.590;2024-03-02T14:14:21;15.40;99.90
8541;DHT22;4308;51.294;6.590;2024-03-02T14:16:49;15.70;99.90
8541;DHT22;4308;51.294;6.590;2024-03-02T14:19:16;15.60;99.90
8541;DHT22;4308;51.294;6.590;2024-03-02T14:21:44;15.60;99.90
8541;DHT22;4308;51.294;6.590;2024-03-02T14:24:14;15.60;99.90
8541;DHT22;4308;51.294;6.590;2024-03-02T14:26:41;15.50;99.90
8541;DHT22;4308;51.294;6.590;2024-03-02T14:29:09;15.40;99.90
8541;DHT22;4308;51.294;6.590;2024-03-02T14:31:36;15.60;99.90
8541;DHT22;4308;51.294;6.590;2024-03-02T14:34:04;15.70;99.90
8541;DHT22;4308;51.294;6.590;2024-03-02T14:36:31;15.80;99.90
8541;DHT22;4308;51.294;6.590;2024-03-02T14:38:58;15.80;99.90
8541;DHT22;4308;51.294;6.590;2024-03-02T14:41:26;15.70;99.90
8541;DHT22;4308;51.294;6.590;2024-03-02T14:43:53;15.70;99.90
8541;DHT22;4308;51.294;6.590;2024-03-02T14:46:20;15.70;99.90
8541;DHT22;4308;51.294;6.590;2024-03-02T14:48:48;15.50;99.90
8541;DHT22;4308;51.294;6.590;2024-03-02T14:51:15;15.40;99.90
8541;DHT22;4308;51.294;6.590;2024-03-02T14:53:42;15.60;99.90
8541;DHT22;4308;51.294;6.590;2024-03-02T14:56:10;15.60;99.90
8541;DHT22;4308;51.294;6.590;2024-03-02T14:58:37;15.80;99.90
8541;DHT22;4308;51.294;6.590;2024-03-02T15:01:05;15.60;99.90
8541;DHT22;4308;51.294;6.590;2024-03-02T15:03:33;15.60;99.90
8541;DHT22;4308;51.294;6.590;2024-03-02T15:06:01;15.40;99.90
8541;DHT22;4308;51.294;6.590;2024-03-02T15:08:29;15.30;99.90
8541;DHT22;4308;51.294;6.590;2024-03-02T15:10:57;15.30;99.90
8541;DHT22;4308;51.294;6.590;2024-03-02T15:13:24;15.30;99.90
8541;DHT22;4308;51.294;6.590;2024-03-02T15:15:52;15.30;99.90
8541;DHT22;4308;51.294;6.590;2024-03-02T15:18:19;15.40;99.90
8541;DHT22;4308;51.294;6.590;2024-03-02T15:20:47;15.50;99.90
8541;DHT22;4308;51.294;6.590;2024-03-02T15:23:14;15.40;99.90
8541;DHT22;4308;51.294;6.590;2024-03-02T15:25:41;15.40;99.90
8541;DHT22;4308;51.294;6.590;2024-03-02T15:28:09;15.40;99.90
8541;DHT22;4308;51.294;6.590;2024-03-02T15:30:36;15.40;99.90
8541;DHT22;4308;51.294;6.590;2024-03-02T15:33:04;15.40;99.90
8541;DHT22;4308;51.294;6.590;2024-03-02T15:35:31;15.40;99.90
8541;DHT22;4308;51.294;6.590;2024-03-02T15:37:58;15.40;99.90
8541;DHT22;4308;51.294;6.590;2024-03-02T15:40:26;15.40;99.90
8541;DHT22;4308;51.294;6.590;2024-03-02T15:42:53;15.40;99.90
8541;DHT22;4308;51.294;6.590;2024-03-02T15:45:20;15.40;99.90
8541;DHT22;4308;51.294;6.590;2024-03-02T15:47:47;15.50;99.90
8541;DHT22;4308;51.294;6.590;2024-03-02T15:50:15;15.40;99.90
8541;DHT22;4308;51.294;6.590;2024-03-02T15:52:42;15.40;99.90
8541;DHT22;4308;51.294;6.590;2024-03-02T15:55:09;15.20;99.90
8541;DHT22;4308;51.294;6.590;2024-03-02T15:57:37;15.20;99.90
8541;DHT22;4308;51.294;6.590;2024-03-02T16:00:05;15.10;99.90
8541;DHT22;4308;51.294;6.590;2024-03-02T16:02:32;14.90;99.90
8541;DHT22;4308;51.294;6.590;2024-03-02T16:05:00;14.90;99.90
8541;DHT22;4308;51.294;6.590;2024-03-02T16:07:27;14.80;99.90
8541;DHT22;4308;51.294;6.590;2024-03-02T16:09:54;14.80;99.90
8541;DHT22;4308;51.294;6.590;2024-03-02T16:12:21;14.80;99.90
8541;DHT22;4308;51.294;6.590;2024-03-02T16:14:49;14.80;99.90
8541;DHT22;4308;51.294;6.590;2024-03-02T16:17:16;14.80;99.90
8541;DHT22;4308;51.294;6.590;2024-03-02T16:19:44;14.80;99.90
8541;DHT22;4308;51.294;6.590;2024-03-02T16:22:11;14.80;99.90
8541;DHT22;4308;51.294;6.590;2024-03-02T16:24:38;14.70;99.90
8541;DHT22;4308;51.294;6.590;2024-03-02T16:27:06;14.60;99.90
8541;DHT22;4308;51.294;6.590;2024-03-02T16:29:33;14.70;99.90